Time;durP1;ratioP1;P1;durP2;ratioP2;P2;SDS_P1;SDS_P2;PMS_P1;PMS_P2;Temp;Humidity;BMP_temperature;BMP_pressure;BME280_temperature;BME280_humidity;BME280_pressure;Samples;Min_cycle;Max_cycle;Signal;HPM_P1;HPM_P2
2023/11/20 00:00:17;;;;;;;19.60;5.05;;;;;;;;;;5036608;28;20025;-67
2023/11/20 00:02:43;;;;;;;26.40;5.93;;;;;;;;;;5042734;28;20029;-67
2023/11/20 00:05:09;;;;;;;19.13;5.22;;;;;;;;;;5045861;28;20098;-67
2023/11/20 00:07:35;;;;;;;21.35;5.43;;;;;;;;;;5037087;28;20024;-67
2023/11/20 00:10:00;;;;;;;9.10;4.35;;;;;;;;;;5037405;28;20104;-67
2023/11/20 00:12:26;;;;;;;11.20;4.32;;;;;;;;;;5036558;28;20111;-67
2023/11/20 00:14:51;;;;;;;13.90;4.43;;;;;;;;;;5042081;28;20542;-67
2023/11/20 00:17:16;;;;;;;15.88;4.25;;;;;;;;;;5038892;28;20398;-67
2023/11/20 00:19:42;;;;;;;15.25;4.53;;;;;;;;;;5043864;28;20033;-67
2023/11/20 00:22:09;;;;;;;11.90;4.60;;;;;;;;;;5050250;28;20534;-67
2023/11/20 00:24:34;;;;;;;16.92;4.53;;;;;;;;;;5042167;28;20485;-67
2023/11/20 00:26:59;;;;;;;18.67;4.97;;;;;;;;;;5045751;28;20021;-67
2023/11/20 00:29:25;;;;;;;12.68;4.25;;;;;;;;;;5046279;28;20087;-67
2023/11/20 00:31:50;;;;;;;28.42;5.10;;;;;;;;;;5056084;28;20025;-67
2023/11/20 00:34:15;;;;;;;17.70;3.92;;;;;;;;;;5041055;28;20460;-67
2023/11/20 00:36:42;;;;;;;9.32;3.50;;;;;;;;;;5048917;28;20028;-67
2023/11/20 00:39:08;;;;;;;15.60;4.75;;;;;;;;;;5043913;28;20037;-67
2023/11/20 00:41:35;;;;;;;16.40;4.93;;;;;;;;;;5041622;28;20025;-67
2023/11/20 00:44:00;;;;;;;12.02;3.88;;;;;;;;;;5049749;28;20028;-67
2023/11/20 00:46:26;;;;;;;10.50;4.00;;;;;;;;;;5045153;28;20017;-67
2023/11/20 00:48:51;;;;;;;31.48;7.38;;;;;;;;;;5044929;28;20474;-67
2023/11/20 00:51:16;;;;;;;9.75;4.97;;;;;;;;;;5041987;28;20052;-67
2023/11/20 00:53:42;;;;;;;7.28;3.67;;;;;;;;;;5042994;28;20021;-67
2023/11/20 00:56:07;;;;;;;8.23;4.32;;;;;;;;;;5047490;28;20036;-67
2023/11/20 00:58:33;;;;;;;12.77;4.15;;;;;;;;;;5062492;28;20084;-68
2023/11/20 01:00:58;;;;;;;7.55;3.75;;;;;;;;;;5041475;28;20473;-68
2023/11/20 01:03:24;;;;;;;8.55;3.45;;;;;;;;;;5043060;28;20028;-68
2023/11/20 01:05:49;;;;;;;9.85;4.35;;;;;;;;;;5041346;28;20021;-68
2023/11/20 01:08:14;;;;;;;6.93;3.03;;;;;;;;;;5036186;28;20075;-68
2023/11/20 01:10:40;;;;;;;17.55;3.03;;;;;;;;;;5048784;28;20397;-68
2023/11/20 01:13:05;;;;;;;4.13;3.30;;;;;;;;;;5035758;28;20029;-68
2023/11/20 01:15:31;;;;;;;7.82;3.33;;;;;;;;;;5048835;28;20071;-68
2023/11/20 01:17:56;;;;;;;16.20;3.42;;;;;;;;;;5035057;28;20032;-68
2023/11/20 01:20:22;;;;;;;13.52;4.53;;;;;;;;;;5049600;28;20017;-68
2023/11/20 01:22:48;;;;;;;6.82;4.45;;;;;;;;;;5055441;28;20028;-68
2023/11/20 01:25:13;;;;;;;18.63;4.47;;;;;;;;;;5036118;28;20036;-68
2023/11/20 01:27:38;;;;;;;9.80;3.80;;;;;;;;;;5034768;28;20021;-68
2023/11/20 01:30:05;;;;;;;11.85;3.65;;;;;;;;;;5052150;28;20043;-68
2023/11/20 01:32:30;;;;;;;8.07;3.75;;;;;;;;;;5041338;28;20035;-68
2023/11/20 01:34:55;;;;;;;6.00;3.13;;;;;;;;;;5041108;28;20100;-68
2023/11/20 01:37:21;;;;;;;21.17;5.03;;;;;;;;;;5055246;28;20108;-68
2023/11/20 01:39:46;;;;;;;16.58;3.92;;;;;;;;;;5054458;28;20489;-68
2023/11/20 01:42:11;;;;;;;15.68;4.18;;;;;;;;;;5050378;28;20030;-68
2023/11/20 01:44:36;;;;;;;32.08;5.70;;;;;;;;;;5035462;28;20061;-68
2023/11/20 01:47:02;;;;;;;14.57;3.83;;;;;;;;;;5034720;28;20457;-68
2023/11/20 01:49:30;;;;;;;7.78;4.05;;;;;;;;;;5035101;28;20505;-68
2023/11/20 01:51:56;;;;;;;6.60;3.88;;;;;;;;;;5034794;28;20029;-68
2023/11/20 01:54:21;;;;;;;7.85;3.30;;;;;;;;;;5038458;28;20029;-68
2023/11/20 01:56:46;;;;;;;22.92;3.70;;;;;;;;;;5053550;28;20032;-68
2023/11/20 01:59:16;;;;;;;11.13;4.00;;;;;;;;;;5052726;28;20033;-68
2023/11/20 02:01:41;;;;;;;9.30;3.97;;;;;;;;;;5037678;28;20033;-68
2023/11/20 02:04:07;;;;;;;7.97;4.22;;;;;;;;;;5034087;28;20083;-68
2023/11/20 02:06:33;;;;;;;10.20;3.80;;;;;;;;;;5033321;28;20360;-68
2023/11/20 02:08:59;;;;;;;7.55;3.67;;;;;;;;;;5038514;28;20021;-68
2023/11/20 02:11:26;;;;;;;25.60;5.60;;;;;;;;;;5054933;28;20127;-68
2023/11/20 02:13:51;;;;;;;6.60;3.60;;;;;;;;;;5050580;28;20024;-68
2023/11/20 02:16:17;;;;;;;8.20;4.13;;;;;;;;;;5032930;28;20037;-68
2023/11/20 02:18:42;;;;;;;5.43;3.58;;;;;;;;;;5034071;28;20048;-68
2023/11/20 02:21:08;;;;;;;12.27;3.63;;;;;;;;;;5037176;28;20029;-68
2023/11/20 02:23:33;;;;;;;21.38;6.28;;;;;;;;;;5054478;28;20032;-68
2023/11/20 02:26:11;;;;;;;10.60;3.42;;;;;;;;;;5052891;28;20029;-68
2023/11/20 02:28:40;;;;;;;17.35;4.43;;;;;;;;;;5042030;28;20530;-68
2023/11/20 02:31:05;;;;;;;19.63;3.92;;;;;;;;;;5033056;28;20037;-68
2023/11/20 02:33:37;;;;;;;20.67;4.65;;;;;;;;;;5032932;28;20025;-68
2023/11/20 02:36:06;;;;;;;16.58;4.60;;;;;;;;;;5032821;28;20033;-68
2023/11/20 02:38:32;;;;;;;14.23;4.03;;;;;;;;;;5032725;28;20104;-68
2023/11/20 02:41:00;;;;;;;6.90;3.65;;;;;;;;;;5033264;28;20056;-68
2023/11/20 02:43:28;;;;;;;7.57;4.00;;;;;;;;;;5033702;28;20026;-68
2023/11/20 02:45:55;;;;;;;8.30;4.13;;;;;;;;;;5033863;28;20025;-68
2023/11/20 02:48:22;;;;;;;5.00;3.22;;;;;;;;;;5052979;28;20024;-68
2023/11/20 02:50:47;;;;;;;10.48;4.68;;;;;;;;;;5051824;28;20029;-68
2023/11/20 02:53:13;;;;;;;10.00;3.35;;;;;;;;;;5043794;28;20033;-68
2023/11/20 02:56:24;;;;;;;9.95;4.15;;;;;;;;;;5033914;28;20032;-68
2023/11/20 02:58:49;;;;;;;6.00;3.35;;;;;;;;;;5038974;28;20029;-68
2023/11/20 03:01:15;;;;;;;6.32;3.50;;;;;;;;;;5053632;28;20054;-68
2023/11/20 03:03:40;;;;;;;7.82;3.13;;;;;;;;;;5053035;28;20025;-68
2023/11/20 03:06:06;;;;;;;5.90;3.33;;;;;;;;;;5040650;28;20029;-68
2023/11/20 03:08:31;;;;;;;7.40;3.30;;;;;;;;;;5046698;28;20379;-68
2023/11/20 03:10:57;;;;;;;7.38;3.72;;;;;;;;;;5032939;28;20108;-68
2023/11/20 03:13:23;;;;;;;6.32;3.35;;;;;;;;;;5033431;28;20025;-68
2023/11/20 03:15:50;;;;;;;6.15;3.80;;;;;;;;;;5032572;28;20032;-68
2023/11/20 03:18:15;;;;;;;5.13;3.20;;;;;;;;;;5033153;28;20017;-68
2023/11/20 03:20:40;;;;;;;5.50;3.35;;;;;;;;;;5046501;28;20048;-68
2023/11/20 03:23:06;;;;;;;6.93;3.13;;;;;;;;;;5032403;28;20028;-68
2023/11/20 03:25:31;;;;;;;8.93;4.60;;;;;;;;;;5034840;28;20032;-68
2023/11/20 03:27:56;;;;;;;20.65;4.07;;;;;;;;;;5053414;28;20082;-68
2023/11/20 03:30:24;;;;;;;8.85;3.67;;;;;;;;;;5034221;28;20465;-68
2023/11/20 03:32:50;;;;;;;6.32;3.38;;;;;;;;;;5034008;28;20035;-69
2023/11/20 03:35:15;;;;;;;7.93;3.65;;;;;;;;;;5033034;28;20021;-68
2023/11/20 03:37:40;;;;;;;10.20;4.47;;;;;;;;;;5033343;28;20029;-68
2023/11/20 03:40:07;;;;;;;8.98;4.03;;;;;;;;;;5032700;28;20029;-68
2023/11/20 03:42:34;;;;;;;7.05;3.70;;;;;;;;;;5032821;28;20029;-68
2023/11/20 03:44:59;;;;;;;10.13;4.65;;;;;;;;;;5033253;28;20056;-68
2023/11/20 03:47:24;;;;;;;11.82;4.32;;;;;;;;;;5031364;28;20021;-68
2023/11/20 03:49:49;;;;;;;6.55;3.45;;;;;;;;;;5048089;28;20386;-68
2023/11/20 03:52:15;;;;;;;11.52;4.95;;;;;;;;;;5053878;28;20028;-68
2023/11/20 03:54:41;;;;;;;10.18;4.22;;;;;;;;;;5051516;28;20044;-68
2023/11/20 03:57:06;;;;;;;11.65;4.05;;;;;;;;;;5036596;28;20036;-68
2023/11/20 03:59:32;;;;;;;10.02;4.57;;;;;;;;;;5036770;28;20467;-68
2023/11/20 04:01:57;;;;;;;15.73;4.72;;;;;;;;;;5054887;28;20036;-68
2023/11/20 04:04:22;;;;;;;9.80;4.63;;;;;;;;;;5056969;28;20028;-68
2023/11/20 04:06:47;;;;;;;14.95;4.07;;;;;;;;;;5056843;28;20366;-68
2023/11/20 04:09:13;;;;;;;9.10;4.38;;;;;;;;;;5056348;28;20036;-68
2023/11/20 04:11:39;;;;;;;21.00;4.60;;;;;;;;;;5056736;28;20044;-68
2023/11/20 04:14:05;;;;;;;14.45;5.25;;;;;;;;;;5055378;28;20035;-68
2023/11/20 04:16:30;;;;;;;8.30;4.15;;;;;;;;;;5040610;28;20030;-68
2023/11/20 04:18:56;;;;;;;11.27;4.93;;;;;;;;;;5035402;28;20032;-68
2023/11/20 04:21:21;;;;;;;7.63;3.88;;;;;;;;;;5036601;28;20033;-68
2023/11/20 04:23:46;;;;;;;8.80;4.72;;;;;;;;;;5036206;28;20033;-68
2023/11/20 04:26:12;;;;;;;7.28;3.45;;;;;;;;;;5036203;28;20029;-68
2023/11/20 04:28:37;;;;;;;14.05;5.18;;;;;;;;;;5035157;28;20051;-68
2023/11/20 04:31:02;;;;;;;10.07;3.97;;;;;;;;;;5036155;28;20029;-68
2023/11/20 04:33:28;;;;;;;9.02;3.97;;;;;;;;;;5036433;28;20024;-68
2023/11/20 04:35:53;;;;;;;7.93;3.85;;;;;;;;;;5035689;28;20151;-68
2023/11/20 04:38:19;;;;;;;6.85;3.05;;;;;;;;;;5036070;28;20081;-68
2023/11/20 04:40:45;;;;;;;10.85;4.22;;;;;;;;;;5035252;28;20034;-68
2023/11/20 04:43:11;;;;;;;10.70;3.83;;;;;;;;;;5036056;28;20096;-68
2023/11/20 04:45:36;;;;;;;6.90;3.42;;;;;;;;;;5043640;28;20111;-68
2023/11/20 04:48:03;;;;;;;9.50;5.18;;;;;;;;;;5056051;28;20067;-68
2023/11/20 04:50:28;;;;;;;10.70;4.78;;;;;;;;;;5055792;28;20048;-68
2023/11/20 04:52:54;;;;;;;6.63;3.40;;;;;;;;;;5056086;28;20482;-68
2023/11/20 04:55:19;;;;;;;8.45;3.95;;;;;;;;;;5055652;28;20028;-68
2023/11/20 04:57:44;;;;;;;6.85;3.78;;;;;;;;;;5045606;28;20029;-68
2023/11/20 05:00:12;;;;;;;6.22;2.85;;;;;;;;;;5035954;28;20025;-68
2023/11/20 05:02:37;;;;;;;6.78;3.75;;;;;;;;;;5034707;28;20033;-68
2023/11/20 05:05:05;;;;;;;10.02;4.07;;;;;;;;;;5035524;28;20112;-68
2023/11/20 05:07:31;;;;;;;8.45;4.25;;;;;;;;;;5045575;28;20021;-68
2023/11/20 05:09:57;;;;;;;6.32;3.15;;;;;;;;;;5054415;28;20429;-68
2023/11/20 05:12:22;;;;;;;5.00;3.33;;;;;;;;;;5055448;28;20029;-68
2023/11/20 05:14:47;;;;;;;9.20;4.13;;;;;;;;;;5052871;28;20111;-68
2023/11/20 05:17:17;;;;;;;8.07;4.03;;;;;;;;;;5035071;28;20028;-68
2023/11/20 05:19:42;;;;;;;4.72;2.80;;;;;;;;;;5035646;28;20049;-68
2023/11/20 05:22:08;;;;;;;6.60;3.78;;;;;;;;;;5035854;28;20122;-68
2023/11/20 05:24:34;;;;;;;5.70;3.35;;;;;;;;;;5035794;28;20029;-69
2023/11/20 05:26:59;;;;;;;7.85;4.30;;;;;;;;;;5017595;28;20021;-68
2023/11/20 05:29:25;;;;;;;8.50;3.78;;;;;;;;;;5035612;28;20026;-68
2023/11/20 05:31:50;;;;;;;10.18;4.30;;;;;;;;;;5036011;28;20025;-68
2023/11/20 05:34:15;;;;;;;10.70;3.42;;;;;;;;;;5035819;28;20382;-68
2023/11/20 05:36:41;;;;;;;12.95;5.63;;;;;;;;;;5036073;28;20026;-68
2023/11/20 05:39:06;;;;;;;9.68;3.40;;;;;;;;;;5035562;28;20390;-68
2023/11/20 05:41:32;;;;;;;8.32;3.10;;;;;;;;;;5034907;28;20394;-68
2023/11/20 05:43:57;;;;;;;8.68;3.33;;;;;;;;;;5035782;28;20037;-68
2023/11/20 05:46:22;;;;;;;10.60;3.90;;;;;;;;;;5035623;28;20095;-69
2023/11/20 05:48:47;;;;;;;6.13;3.25;;;;;;;;;;5035285;28;20018;-69
2023/11/20 05:51:19;;;;;;;10.13;3.80;;;;;;;;;;5035528;28;20026;-68
2023/11/20 05:53:45;;;;;;;7.55;3.60;;;;;;;;;;5034954;28;20030;-68
2023/11/20 05:56:13;;;;;;;7.10;3.88;;;;;;;;;;5035323;28;20494;-68
2023/11/20 05:58:38;;;;;;;6.95;3.22;;;;;;;;;;5035327;28;20056;-68
2023/11/20 06:01:03;;;;;;;7.28;3.17;;;;;;;;;;5035383;28;20489;-68
2023/11/20 06:03:29;;;;;;;8.88;3.95;;;;;;;;;;5034593;28;20036;-68
2023/11/20 06:05:54;;;;;;;17.00;4.78;;;;;;;;;;5035377;28;20025;-68
2023/11/20 06:08:19;;;;;;;19.85;4.75;;;;;;;;;;5035017;28;20526;-68
2023/11/20 06:10:44;;;;;;;11.60;4.65;;;;;;;;;;5035089;28;20017;-68
2023/11/20 06:13:10;;;;;;;8.55;3.42;;;;;;;;;;5034618;28;20033;-68
2023/11/20 06:15:35;;;;;;;7.70;3.65;;;;;;;;;;5034569;28;20079;-68
2023/11/20 06:18:00;;;;;;;7.47;2.97;;;;;;;;;;5034776;28;20390;-68
2023/11/20 06:20:26;;;;;;;8.65;3.63;;;;;;;;;;5034728;28;20071;-68
2023/11/20 06:22:51;;;;;;;6.90;3.33;;;;;;;;;;5034168;28;20391;-68
2023/11/20 06:25:16;;;;;;;5.20;2.92;;;;;;;;;;5035066;28;20029;-69
2023/11/20 06:27:41;;;;;;;7.80;3.72;;;;;;;;;;5034864;28;20072;-68
2023/11/20 06:30:07;;;;;;;11.55;3.92;;;;;;;;;;5034696;28;20033;-68
2023/11/20 06:32:32;;;;;;;7.97;4.50;;;;;;;;;;5033357;28;20108;-68
2023/11/20 06:34:58;;;;;;;7.75;4.35;;;;;;;;;;5034090;28;20022;-68
2023/11/20 06:37:23;;;;;;;6.25;3.47;;;;;;;;;;5033151;28;20474;-68
2023/11/20 06:39:48;;;;;;;12.98;5.38;;;;;;;;;;5034477;28;20068;-68
2023/11/20 06:42:14;;;;;;;9.85;3.40;;;;;;;;;;5035130;28;20025;-68
2023/11/20 06:44:39;;;;;;;12.23;4.25;;;;;;;;;;5033859;28;20028;-68
2023/11/20 06:47:07;;;;;;;19.60;4.55;;;;;;;;;;5034381;28;20029;-69
2023/11/20 06:49:33;;;;;;;12.35;3.78;;;;;;;;;;5034367;28;20022;-68
2023/11/20 06:51:59;;;;;;;15.30;4.05;;;;;;;;;;5034208;28;20021;-68
2023/11/20 06:54:24;;;;;;;9.57;3.83;;;;;;;;;;5034607;28;20029;-68
2023/11/20 06:56:49;;;;;;;16.27;6.07;;;;;;;;;;5033805;28;20033;-68
2023/11/20 06:59:16;;;;;;;19.58;5.22;;;;;;;;;;5033931;28;20017;-68
2023/11/20 07:01:45;;;;;;;18.42;4.50;;;;;;;;;;5032993;28;20025;-68
2023/11/20 07:04:11;;;;;;;39.42;5.60;;;;;;;;;;5033128;28;20060;-68
2023/11/20 07:06:37;;;;;;;11.73;5.05;;;;;;;;;;5033968;28;20021;-68
2023/11/20 07:09:12;;;;;;;17.05;5.00;;;;;;;;;;5033872;28;20051;-68
2023/11/20 07:11:37;;;;;;;19.75;5.95;;;;;;;;;;5032908;28;20043;-68
2023/11/20 07:14:02;;;;;;;14.10;5.38;;;;;;;;;;5034378;28;20025;-68
2023/11/20 07:16:28;;;;;;;17.92;6.05;;;;;;;;;;5034209;28;20429;-68
2023/11/20 07:18:53;;;;;;;18.75;7.13;;;;;;;;;;5034431;28;20097;-68
2023/11/20 07:21:19;;;;;;;23.65;5.97;;;;;;;;;;5034438;28;20025;-68
2023/11/20 07:23:44;;;;;;;37.65;8.02;;;;;;;;;;5033925;28;20518;-68
2023/11/20 07:26:15;;;;;;;20.35;5.72;;;;;;;;;;5032744;28;20390;-68
2023/11/20 07:28:41;;;;;;;;;;;;;;;;;;5032742;28;20018;-68
2023/11/20 07:31:08;;;;;;;19.05;6.75;;;;;;;;;;5033758;28;19916;-68
2023/11/20 07:33:33;;;;;;;18.02;6.40;;;;;;;;;;5033420;28;20031;-69
2023/11/20 07:35:58;;;;;;;18.30;6.53;;;;;;;;;;5032921;28;20100;-68
2023/11/20 07:38:24;;;;;;;23.70;6.03;;;;;;;;;;5032243;28;20067;-68
2023/11/20 07:40:50;;;;;;;21.13;6.63;;;;;;;;;;5032191;28;20347;-69
2023/11/20 07:43:15;;;;;;;29.42;7.43;;;;;;;;;;5033431;28;20500;-68
2023/11/20 07:45:41;;;;;;;27.40;9.25;;;;;;;;;;5032884;28;20112;-68
2023/11/20 07:48:07;;;;;;;24.92;6.55;;;;;;;;;;5032242;28;20021;-68
2023/11/20 07:50:33;;;;;;;24.05;6.57;;;;;;;;;;5033282;28;20562;-68
2023/11/20 07:52:58;;;;;;;23.25;7.40;;;;;;;;;;5032139;28;20025;-68
2023/11/20 07:55:25;;;;;;;21.80;7.70;;;;;;;;;;5033564;28;20079;-68
2023/11/20 07:57:51;;;;;;;18.63;5.85;;;;;;;;;;5033451;28;20022;-68
2023/11/20 08:00:16;;;;;;;18.23;6.05;;;;;;;;;;5032827;28;20037;-68
2023/11/20 08:02:42;;;;;;;16.13;4.80;;;;;;;;;;5033567;28;20385;-68
2023/11/20 08:05:08;;;;;;;16.52;5.75;;;;;;;;;;5032203;28;20561;-68
2023/11/20 08:07:34;;;;;;;14.70;5.38;;;;;;;;;;5033444;28;20035;-68
2023/11/20 08:09:59;;;;;;;16.88;5.72;;;;;;;;;;5033297;28;20100;-67
2023/11/20 08:12:24;;;;;;;23.17;5.97;;;;;;;;;;5033092;28;20375;-68
2023/11/20 08:14:50;;;;;;;15.73;5.88;;;;;;;;;;5032554;28;20022;-67
2023/11/20 08:17:15;;;;;;;17.80;5.47;;;;;;;;;;5033248;28;20108;-68
2023/11/20 08:19:40;;;;;;;11.73;4.93;;;;;;;;;;5033002;28;20480;-67
2023/11/20 08:22:06;;;;;;;16.25;5.05;;;;;;;;;;5044530;28;20529;-68
2023/11/20 08:24:31;;;;;;;13.68;5.18;;;;;;;;;;5047020;28;20116;-68
2023/11/20 08:26:57;;;;;;;18.23;6.25;;;;;;;;;;5040474;28;20062;-68
2023/11/20 08:29:22;;;;;;;21.80;6.28;;;;;;;;;;5052257;28;20375;-68
2023/11/20 08:31:47;;;;;;;18.13;6.70;;;;;;;;;;5052113;28;20059;-68
2023/11/20 08:34:13;;;;;;;19.50;5.50;;;;;;;;;;5034758;28;20078;-68
2023/11/20 08:36:39;;;;;;;13.38;5.15;;;;;;;;;;5032582;28;20024;-68
2023/11/20 08:39:11;;;;;;;17.90;6.88;;;;;;;;;;5034383;28;20021;-68
2023/11/20 08:41:37;;;;;;;13.57;6.47;;;;;;;;;;5036032;28;20023;-68
2023/11/20 08:44:04;;;;;;;13.75;5.70;;;;;;;;;;5036331;28;20076;-68
2023/11/20 08:46:29;;;;;;;14.80;5.28;;;;;;;;;;5035026;28;20492;-69
2023/11/20 08:48:54;;;;;;;17.35;5.82;;;;;;;;;;5036183;28;20025;-68
2023/11/20 08:51:20;;;;;;;16.92;6.82;;;;;;;;;;5036016;28;20035;-68
2023/11/20 08:53:45;;;;;;;12.27;4.57;;;;;;;;;;5035879;28;20106;-68
2023/11/20 08:56:10;;;;;;;11.85;4.60;;;;;;;;;;5035836;28;20021;-68
2023/11/20 08:58:36;;;;;;;17.02;5.55;;;;;;;;;;5035905;28;20025;-68
2023/11/20 09:01:02;;;;;;;22.13;6.47;;;;;;;;;;5034806;28;20175;-68
2023/11/20 09:03:27;;;;;;;17.92;6.03;;;;;;;;;;5035586;28;20025;-68
2023/11/20 09:05:52;;;;;;;14.55;6.55;;;;;;;;;;5053012;28;20017;-70
2023/11/20 09:08:17;;;;;;;25.33;7.55;;;;;;;;;;5055463;28;20389;-67
2023/11/20 09:10:44;;;;;;;30.77;7.25;;;;;;;;;;5055624;28;20176;-67
2023/11/20 09:13:09;;;;;;;42.50;9.82;;;;;;;;;;5055650;28;20083;-67
2023/11/20 09:15:35;;;;;;;37.35;10.20;;;;;;;;;;5053638;28;20028;-67
2023/11/20 09:18:00;;;;;;;27.17;9.98;;;;;;;;;;5055292;28;20135;-67
2023/11/20 09:20:26;;;;;;;24.98;9.05;;;;;;;;;;5047893;28;20026;-67
2023/11/20 09:22:51;;;;;;;32.20;10.20;;;;;;;;;;5035554;28;20021;-67
2023/11/20 09:25:17;;;;;;;26.48;8.65;;;;;;;;;;5034705;28;20034;-67
2023/11/20 09:27:42;;;;;;;30.90;11.00;;;;;;;;;;5035504;28;20048;-67
2023/11/20 09:30:09;;;;;;;29.73;9.52;;;;;;;;;;5034561;28;20044;-67
2023/11/20 09:32:35;;;;;;;25.20;8.75;;;;;;;;;;5034175;28;20052;-67
2023/11/20 09:35:00;;;;;;;25.92;8.07;;;;;;;;;;5049708;28;20056;-67
2023/11/20 09:37:27;;;;;;;27.35;9.15;;;;;;;;;;5055136;28;20032;-67
2023/11/20 09:39:53;;;;;;;37.47;7.85;;;;;;;;;;5054942;28;20029;-67
2023/11/20 09:42:22;;;;;;;25.27;8.23;;;;;;;;;;5055422;28;20128;-67
2023/11/20 09:44:49;;;;;;;30.80;8.18;;;;;;;;;;5053821;28;20039;-67
2023/11/20 09:47:15;;;;;;;20.00;7.53;;;;;;;;;;5054473;28;20112;-67
2023/11/20 09:49:42;;;;;;;32.25;11.43;;;;;;;;;;5049537;28;20045;-67
2023/11/20 09:52:08;;;;;;;19.00;8.40;;;;;;;;;;5034829;28;20478;-67
2023/11/20 09:54:37;;;;;;;16.88;8.68;;;;;;;;;;5033511;28;20025;-67
2023/11/20 09:57:03;;;;;;;50.90;21.55;;;;;;;;;;5032933;28;20017;-67
2023/11/20 09:59:28;;;;;;;113.10;36.72;;;;;;;;;;5033350;28;20041;-67
2023/11/20 10:01:54;;;;;;;109.55;40.33;;;;;;;;;;5047884;28;20028;-67
2023/11/20 10:04:21;;;;;;;89.07;36.50;;;;;;;;;;5053300;28;20057;-67
2023/11/20 10:06:47;;;;;;;88.45;32.50;;;;;;;;;;5044517;28;20100;-68
2023/11/20 10:09:15;;;;;;;98.80;29.33;;;;;;;;;;5032560;28;20022;-67
2023/11/20 10:11:41;;;;;;;56.13;16.08;;;;;;;;;;5034035;28;20469;-67
2023/11/20 10:14:06;;;;;;;25.05;7.82;;;;;;;;;;5036500;28;20028;-67
2023/11/20 10:16:35;;;;;;;18.15;9.07;;;;;;;;;;5053765;28;20031;-67
2023/11/20 10:19:01;;;;;;;12.25;6.28;;;;;;;;;;5052732;28;20074;-67
2023/11/20 10:21:26;;;;;;;14.32;6.70;;;;;;;;;;5049375;28;20021;-67
2023/11/20 10:23:54;;;;;;;13.90;6.97;;;;;;;;;;5034230;28;20033;-67
2023/11/20 10:26:23;;;;;;;29.02;9.57;;;;;;;;;;5032792;28;20100;-67
2023/11/20 10:28:48;;;;;;;14.45;6.55;;;;;;;;;;5039710;28;20028;-67
2023/11/20 10:31:13;;;;;;;12.38;6.20;;;;;;;;;;5053948;28;20509;-66
2023/11/20 10:33:38;;;;;;;51.22;8.73;;;;;;;;;;5052959;28;20032;-67
2023/11/20 10:36:14;;;;;;;14.52;6.82;;;;;;;;;;5041823;28;20064;-67
2023/11/20 10:38:41;;;;;;;16.13;7.00;;;;;;;;;;5032498;28;20022;-67
2023/11/20 10:41:10;;;;;;;16.70;7.13;;;;;;;;;;5033495;28;20049;-66
2023/11/20 10:43:37;;;;;;;16.25;6.75;;;;;;;;;;5032588;28;20021;-67
2023/11/20 10:46:05;;;;;;;15.85;6.70;;;;;;;;;;5032208;28;20032;-67
2023/11/20 10:48:34;;;;;;;16.13;7.30;;;;;;;;;;5033065;28;20045;-67
2023/11/20 10:51:14;;;;;;;22.38;7.25;;;;;;;;;;5033752;28;20021;-67
2023/11/20 10:53:40;;;;;;;16.30;6.47;;;;;;;;;;5033940;28;20025;-67
2023/11/20 10:56:11;;;;;;;19.38;7.63;;;;;;;;;;5032409;28;20026;-67
2023/11/20 10:58:38;;;;;;;13.32;6.20;;;;;;;;;;5033611;28;20030;-67
2023/11/20 11:01:04;;;;;;;18.55;7.35;;;;;;;;;;5031861;28;20036;-67
2023/11/20 11:03:32;;;;;;;18.10;7.38;;;;;;;;;;5033207;28;20032;-67
2023/11/20 11:06:09;;;;;;;16.45;6.93;;;;;;;;;;5033768;28;20107;-67
2023/11/20 11:08:34;;;;;;;17.02;6.00;;;;;;;;;;5033259;28;20021;-67
2023/11/20 11:11:03;;;;;;;12.07;6.03;;;;;;;;;;5035978;28;20538;-67
2023/11/20 11:13:32;;;;;;;13.85;5.43;;;;;;;;;;5053011;28;20462;-67
2023/11/20 11:15:58;;;;;;;14.00;5.28;;;;;;;;;;5034282;28;20036;-67
2023/11/20 11:18:27;;;;;;;10.45;5.03;;;;;;;;;;5015327;28;20438;-67
2023/11/20 11:20:58;;;;;;;11.88;5.80;;;;;;;;;;5032063;28;20030;-67
2023/11/20 11:23:35;;;;;;;13.77;5.43;;;;;;;;;;5031879;28;20076;-67
2023/11/20 11:26:15;;;;;;;15.52;6.00;;;;;;;;;;5033184;28;20545;-67
2023/11/20 11:28:43;;;;;;;8.10;4.07;;;;;;;;;;5033571;28;20033;-67
2023/11/20 11:31:09;;;;;;;12.32;5.32;;;;;;;;;;5031613;28;20040;-67
2023/11/20 11:33:42;;;;;;;10.85;4.85;;;;;;;;;;5031909;28;20023;-67
2023/11/20 11:36:25;;;;;;;10.00;4.43;;;;;;;;;;5031782;28;20029;-68
2023/11/20 11:38:59;;;;;;;9.10;4.65;;;;;;;;;;5032194;28;20122;-68
2023/11/20 11:42:11;;;;;;;11.27;5.38;;;;;;;;;;5032682;28;20101;-68
2023/11/20 11:44:59;;;;;;;10.65;4.35;;;;;;;;;;5023359;28;20033;-67
2023/11/20 11:47:26;;;;;;;11.73;5.40;;;;;;;;;;5031973;28;20101;-67
2023/11/20 11:49:52;;;;;;;13.35;5.30;;;;;;;;;;5031304;28;20041;-67
2023/11/20 11:52:19;;;;;;;10.32;5.03;;;;;;;;;;5033062;28;20507;-67
2023/11/20 11:54:45;;;;;;;10.60;5.20;;;;;;;;;;5033138;28;20083;-67
2023/11/20 11:57:20;;;;;;;13.57;5.78;;;;;;;;;;5033511;28;20029;-67
2023/11/20 11:59:46;;;;;;;13.00;4.95;;;;;;;;;;5031764;28;20386;-67
2023/11/20 12:02:17;;;;;;;11.05;4.88;;;;;;;;;;5031361;28;20033;-67
2023/11/20 12:04:49;;;;;;;11.90;5.43;;;;;;;;;;5031861;28;20505;-67
2023/11/20 12:07:14;;;;;;;;;;;;;;;;;;5033421;28;20037;-67
2023/11/20 12:09:55;;;;;;;12.27;5.35;;;;;;;;;;5033721;28;19909;-67
2023/11/20 12:12:55;;;;;;;14.77;5.95;;;;;;;;;;5032656;28;20390;-67
2023/11/20 12:15:29;;;;;;;15.95;6.35;;;;;;;;;;5035525;28;20120;-67
2023/11/20 12:17:58;;;;;;;17.45;6.38;;;;;;;;;;5037072;28;20064;-67
2023/11/20 12:20:27;;;;;;;17.40;7.43;;;;;;;;;;5035487;28;20021;-67
2023/11/20 12:22:53;;;;;;;16.17;7.40;;;;;;;;;;5036165;28;20025;-67
2023/11/20 12:25:18;;;;;;;13.60;6.38;;;;;;;;;;5035737;28;20471;-67
2023/11/20 12:27:44;;;;;;;15.63;5.63;;;;;;;;;;5036584;28;20382;-67
2023/11/20 12:30:11;;;;;;;18.05;8.10;;;;;;;;;;5035273;28;20074;-67
2023/11/20 12:32:37;;;;;;;17.38;7.32;;;;;;;;;;5036499;28;20022;-67
2023/11/20 12:35:03;;;;;;;13.45;5.63;;;;;;;;;;5036164;28;20029;-67
2023/11/20 12:37:31;;;;;;;15.48;5.70;;;;;;;;;;5036754;28;20363;-67
2023/11/20 12:39:56;;;;;;;15.60;6.65;;;;;;;;;;5035194;28;20025;-67
2023/11/20 12:42:22;;;;;;;15.70;5.88;;;;;;;;;;5034895;28;20367;-68
2023/11/20 12:44:47;;;;;;;13.25;5.82;;;;;;;;;;5036547;28;20060;-67
2023/11/20 12:47:13;;;;;;;21.00;7.68;;;;;;;;;;5036614;28;20048;-68
2023/11/20 12:49:38;;;;;;;15.90;6.07;;;;;;;;;;5036137;28;20486;-68
2023/11/20 12:52:04;;;;;;;15.73;4.55;;;;;;;;;;5036243;28;20438;-67
2023/11/20 12:54:29;;;;;;;11.35;4.32;;;;;;;;;;5034902;28;20112;-68
2023/11/20 12:56:55;;;;;;;9.73;4.20;;;;;;;;;;5035524;28;20021;-67
2023/11/20 12:59:21;;;;;;;6.68;3.10;;;;;;;;;;5036016;28;20467;-67
2023/11/20 13:01:47;;;;;;;5.70;3.30;;;;;;;;;;5036087;28;20025;-67
2023/11/20 13:04:12;;;;;;;7.20;3.67;;;;;;;;;;5034810;28;20545;-68
2023/11/20 13:06:39;;;;;;;7.57;4.75;;;;;;;;;;5035896;28;20079;-67
2023/11/20 13:09:07;;;;;;;8.63;3.85;;;;;;;;;;5036041;28;20026;-67
2023/11/20 13:11:34;;;;;;;9.13;3.08;;;;;;;;;;5035406;28;20078;-67
2023/11/20 13:13:59;;;;;;;9.80;3.65;;;;;;;;;;5036022;28;20036;-67
2023/11/20 13:16:24;;;;;;;6.72;3.55;;;;;;;;;;5035740;28;20025;-68
2023/11/20 13:18:51;;;;;;;6.15;3.65;;;;;;;;;;5035863;28;20029;-67
2023/11/20 13:21:24;;;;;;;9.77;4.32;;;;;;;;;;5034567;28;20021;-68
2023/11/20 13:24:04;;;;;;;10.48;3.92;;;;;;;;;;5034337;28;20553;-67
2023/11/20 13:26:30;;;;;;;9.63;4.32;;;;;;;;;;5034550;28;20036;-68
2023/11/20 13:28:57;;;;;;;9.57;4.38;;;;;;;;;;5035280;28;20033;-67
2023/11/20 13:31:36;;;;;;;10.98;4.95;;;;;;;;;;5035391;28;20029;-67
2023/11/20 13:34:03;;;;;;;12.43;5.57;;;;;;;;;;5034592;28;20025;-67
2023/11/20 13:36:29;;;;;;;13.02;5.18;;;;;;;;;;5034187;28;20101;-67
2023/11/20 13:38:54;;;;;;;11.25;4.18;;;;;;;;;;5035315;28;20061;-67
2023/11/20 13:41:19;;;;;;;9.95;3.97;;;;;;;;;;5035431;28;20021;-67
2023/11/20 13:43:45;;;;;;;6.72;3.40;;;;;;;;;;5034138;28;20033;-68
2023/11/20 13:46:10;;;;;;;8.50;3.78;;;;;;;;;;5034885;28;20017;-68
2023/11/20 13:48:36;;;;;;;7.57;4.13;;;;;;;;;;5034150;28;20025;-68
2023/11/20 13:51:03;;;;;;;10.73;4.05;;;;;;;;;;5035170;28;20099;-68
2023/11/20 13:53:28;;;;;;;11.15;4.43;;;;;;;;;;5035330;28;20022;-68
2023/11/20 13:55:55;;;;;;;10.98;4.90;;;;;;;;;;5035330;28;20071;-67
2023/11/20 13:58:24;;;;;;;14.93;5.15;;;;;;;;;;5033645;28;20108;-68
2023/11/20 14:00:58;;;;;;;18.27;6.88;;;;;;;;;;5033186;28;20120;-67
2023/11/20 14:03:24;;;;;;;17.55;5.05;;;;;;;;;;5034379;28;20367;-67
2023/11/20 14:05:50;;;;;;;13.70;6.75;;;;;;;;;;5033753;28;20026;-67
2023/11/20 14:08:16;;;;;;;14.05;5.10;;;;;;;;;;5034848;28;20029;-67
2023/11/20 14:10:42;;;;;;;16.65;6.70;;;;;;;;;;5034691;28;20082;-67
2023/11/20 14:13:08;;;;;;;11.15;5.47;;;;;;;;;;5034150;28;20139;-67
2023/11/20 14:15:33;;;;;;;17.00;5.97;;;;;;;;;;5034759;28;20029;-68
2023/11/20 14:17:59;;;;;;;10.88;4.95;;;;;;;;;;5034591;28;20022;-68
2023/11/20 14:20:25;;;;;;;14.10;5.13;;;;;;;;;;5041472;28;20058;-67
2023/11/20 14:22:54;;;;;;;10.02;4.85;;;;;;;;;;5053370;28;20021;-67
2023/11/20 14:25:23;;;;;;;14.75;5.32;;;;;;;;;;5032911;28;20038;-67
2023/11/20 14:27:50;;;;;;;14.52;5.65;;;;;;;;;;5043747;28;20071;-67
2023/11/20 14:30:16;;;;;;;14.93;5.55;;;;;;;;;;5045714;28;20030;-67